Terminal Aerodrome Forecast
Issued by NWS Atlanta, GA

Home | Current Version | Previous Version | Text Only | Print | Product List | Glossary On
Versions: 1 2 3 4 5 6 7 8 9 10 11 12 13 14 15 16 17 18 19 20 21 22 23 24 25 26 27 28 29 30 31 32 33 34 35 36 37 38
693
FTUS42 KFFC 272323
TAFAHN
TAF
KAHN 272323Z 2800/2824 22005KT P6SM VCSH SCT025 BKN045
     FM280200 00000KT P6SM FEW030
     FM280900 00000KT 4SM BR BKN006
      TEMPO 2811/2813 2SM BR
     FM281500 17006KT P6SM BKN012
     FM281900 19008KT P6SM SCT035=

USA.gov is the U.S. government's official web portal to all federal, state and local government web resources and services.